sensor_id;sensor_type;location;lat;lon;timestamp;pressure;altitude;pressure_sealevel;temperature;humidity
48968;BME280;46511;53.148;8.204;2023-04-21T00:01:21;101889.81;;;9.16;100.00
48968;BME280;46511;53.148;8.204;2023-04-21T00:03:53;101912.00;;;9.40;100.00
48968;BME280;46511;53.148;8.204;2023-04-21T00:06:25;101902.38;;;9.11;100.00
48968;BME280;46511;53.148;8.204;2023-04-21T00:08:56;101903.97;;;9.15;100.00
48968;BME280;46511;53.148;8.204;2023-04-21T00:11:27;101908.13;;;9.24;100.00
48968;BME280;46511;53.148;8.204;2023-04-21T00:13:59;101903.88;;;9.18;100.00
48968;BME280;46511;53.148;8.204;2023-04-21T00:16:30;101909.78;;;9.00;100.00
48968;BME280;46511;53.148;8.204;2023-04-21T00:19:01;101908.13;;;9.24;100.00
48968;BME280;46511;53.148;8.204;2023-04-21T00:21:32;101900.88;;;9.02;100.00
48968;BME280;46511;53.148;8.204;2023-04-21T00:24:05;101896.47;;;9.29;100.00
48968;BME280;46511;53.148;8.204;2023-04-21T00:26:36;101888.75;;;9.22;100.00
48968;BME280;46511;53.148;8.204;2023-04-21T00:29:08;101899.50;;;9.17;100.00
48968;BME280;46511;53.148;8.204;2023-04-21T00:31:39;101882.97;;;9.09;100.00
48968;BME280;46511;53.148;8.204;2023-04-21T00:34:10;101880.75;;;9.23;100.00
48968;BME280;46511;53.148;8.204;2023-04-21T00:36:41;101882.78;;;9.15;100.00
48968;BME280;46511;53.148;8.204;2023-04-21T00:39:13;101886.59;;;9.06;100.00
48968;BME280;46511;53.148;8.204;2023-04-21T00:41:44;101878.84;;;9.27;100.00
48968;BME280;46511;53.148;8.204;2023-04-21T00:44:15;101886.59;;;9.33;100.00
48968;BME280;46511;53.148;8.204;2023-04-21T00:46:47;101878.59;;;9.34;100.00
48968;BME280;46511;53.148;8.204;2023-04-21T00:49:18;101876.97;;;9.30;100.00
48968;BME280;46511;53.148;8.204;2023-04-21T00:51:45;101875.31;;;9.26;100.00
48968;BME280;46511;53.148;8.204;2023-04-21T00:54:16;101872.91;;;9.20;100.00
48968;BME280;46511;53.148;8.204;2023-04-21T00:56:48;101871.66;;;9.30;100.00
48968;BME280;46511;53.148;8.204;2023-04-21T00:59:19;101870.94;;;9.25;100.00
48968;BME280;46511;53.148;8.204;2023-04-21T01:01:51;101872.47;;;9.06;100.00
48968;BME280;46511;53.148;8.204;2023-04-21T01:04:22;101861.06;;;9.30;100.00
48968;BME280;46511;53.148;8.204;2023-04-21T01:06:54;101856.63;;;9.31;100.00
48968;BME280;46511;53.148;8.204;2023-04-21T01:09:25;101858.09;;;9.39;100.00
48968;BME280;46511;53.148;8.204;2023-04-21T01:12:01;101847.31;;;9.19;100.00
48968;BME280;46511;53.148;8.204;2023-04-21T01:14:33;101856.03;;;9.48;100.00
48968;BME280;46511;53.148;8.204;2023-04-21T01:17:06;101851.63;;;9.47;100.00
48968;BME280;46511;53.148;8.204;2023-04-21T01:19:39;101846.50;;;9.42;100.00
48968;BME280;46511;53.148;8.204;2023-04-21T01:22:12;101849.91;;;9.21;100.00
48968;BME280;46511;53.148;8.204;2023-04-21T01:24:46;101845.03;;;9.33;100.00
48968;BME280;46511;53.148;8.204;2023-04-21T01:27:19;101844.13;;;9.08;100.00
48968;BME280;46511;53.148;8.204;2023-04-21T01:29:51;101845.41;;;9.23;100.00
48968;BME280;46511;53.148;8.204;2023-04-21T01:32:24;101841.91;;;9.22;100.00
48968;BME280;46511;53.148;8.204;2023-04-21T01:34:58;101846.22;;;8.98;100.00
48968;BME280;46511;53.148;8.204;2023-04-21T01:37:27;101846.16;;;9.00;100.00
48968;BME280;46511;53.148;8.204;2023-04-21T01:40:03;101843.19;;;9.10;100.00
48968;BME280;46511;53.148;8.204;2023-04-21T01:42:38;101835.13;;;9.13;100.00
48968;BME280;46511;53.148;8.204;2023-04-21T01:45:13;101839.94;;;8.74;100.00
48968;BME280;46511;53.148;8.204;2023-04-21T01:47:44;101836.41;;;9.02;100.00
48968;BME280;46511;53.148;8.204;2023-04-21T01:50:15;101831.44;;;9.18;100.00
48968;BME280;46511;53.148;8.204;2023-04-21T01:52:48;101846.16;;;9.00;100.00
48968;BME280;46511;53.148;8.204;2023-04-21T01:55:19;101832.41;;;8.88;100.00
48968;BME280;46511;53.148;8.204;2023-04-21T01:57:50;101840.38;;;9.15;100.00
48968;BME280;46511;53.148;8.204;2023-04-21T02:00:22;101837.31;;;9.01;100.00
48968;BME280;46511;53.148;8.204;2023-04-21T02:02:53;101843.19;;;9.10;100.00
48968;BME280;46511;53.148;8.204;2023-04-21T02:05:24;101831.16;;;9.00;100.00
48968;BME280;46511;53.148;8.204;2023-04-21T02:07:56;101834.66;;;9.01;100.00
48968;BME280;46511;53.148;8.204;2023-04-21T02:10:27;101829.25;;;9.04;100.00
48968;BME280;46511;53.148;8.204;2023-04-21T02:12:58;101826.81;;;8.98;100.00
48968;BME280;46511;53.148;8.204;2023-04-21T02:15:30;101820.53;;;8.74;100.00
48968;BME280;46511;53.148;8.204;2023-04-21T02:18:02;101824.56;;;9.12;100.00
48968;BME280;46511;53.148;8.204;2023-04-21T02:20:33;101827.59;;;9.01;100.00
48968;BME280;46511;53.148;8.204;2023-04-21T02:23:05;101829.31;;;9.02;100.00
48968;BME280;46511;53.148;8.204;2023-04-21T02:25:36;101823.34;;;9.22;100.00
48968;BME280;46511;53.148;8.204;2023-04-21T02:28:07;101823.03;;;9.05;100.00
48968;BME280;46511;53.148;8.204;2023-04-21T02:30:38;101823.34;;;9.22;100.00
48968;BME280;46511;53.148;8.204;2023-04-21T02:33:10;101818.50;;;9.08;100.00
48968;BME280;46511;53.148;8.204;2023-04-21T02:35:41;101818.84;;;9.24;100.00
48968;BME280;46511;53.148;8.204;2023-04-21T02:38:12;101820.56;;;9.25;100.00
48968;BME280;46511;53.148;8.204;2023-04-21T02:40:44;101812.25;;;9.11;100.00
48968;BME280;46511;53.148;8.204;2023-04-21T02:43:15;101814.66;;;9.17;100.00
48968;BME280;46511;53.148;8.204;2023-04-21T02:45:47;101813.84;;;9.15;100.00
48968;BME280;46511;53.148;8.204;2023-04-21T02:48:18;101809.91;;;9.02;100.00
48968;BME280;46511;53.148;8.204;2023-04-21T02:50:52;101823.09;;;9.03;100.00
48968;BME280;46511;53.148;8.204;2023-04-21T02:53:24;101814.91;;;9.09;100.00
48968;BME280;46511;53.148;8.204;2023-04-21T02:55:55;101812.13;;;9.14;100.00
48968;BME280;46511;53.148;8.204;2023-04-21T02:58:26;101817.38;;;9.15;100.00
48968;BME280;46511;53.148;8.204;2023-04-21T03:00:58;101810.19;;;9.19;100.00
48968;BME280;46511;53.148;8.204;2023-04-21T03:03:29;101803.75;;;9.00;100.00
48968;BME280;46511;53.148;8.204;2023-04-21T03:06:02;101801.84;;;9.05;100.00
48968;BME280;46511;53.148;8.204;2023-04-21T03:08:34;101810.22;;;9.18;100.00
48968;BME280;46511;53.148;8.204;2023-04-21T03:11:05;101805.41;;;9.04;100.00
48968;BME280;46511;53.148;8.204;2023-04-21T03:13:37;101819.28;;;9.12;100.00
48968;BME280;46511;53.148;8.204;2023-04-21T03:16:08;101815.03;;;9.06;100.00
48968;BME280;46511;53.148;8.204;2023-04-21T03:18:39;101807.69;;;9.14;100.00
48968;BME280;46511;53.148;8.204;2023-04-21T03:21:11;101819.75;;;9.23;100.00
48968;BME280;46511;53.148;8.204;2023-04-21T03:23:42;101827.28;;;9.10;100.00
48968;BME280;46511;53.148;8.204;2023-04-21T03:26:13;101820.31;;;9.06;100.00
48968;BME280;46511;53.148;8.204;2023-04-21T03:28:44;101819.03;;;9.18;100.00
48968;BME280;46511;53.148;8.204;2023-04-21T03:31:16;101809.97;;;8.99;100.00
48968;BME280;46511;53.148;8.204;2023-04-21T03:33:47;101821.50;;;9.24;100.00
48968;BME280;46511;53.148;8.204;2023-04-21T03:36:18;101819.56;;;9.03;100.00
48968;BME280;46511;53.148;8.204;2023-04-21T03:38:49;101822.53;;;9.20;100.00
48968;BME280;46511;53.148;8.204;2023-04-21T03:41:21;101822.53;;;9.20;100.00
48968;BME280;46511;53.148;8.204;2023-04-21T03:43:52;101824.66;;;9.09;100.00
48968;BME280;46511;53.148;8.204;2023-04-21T03:46:23;101825.50;;;9.11;100.00
48968;BME280;46511;53.148;8.204;2023-04-21T03:48:55;101822.91;;;9.08;100.00
48968;BME280;46511;53.148;8.204;2023-04-21T03:51:26;101823.59;;;9.14;100.00
48968;BME280;46511;53.148;8.204;2023-04-21T03:53:58;101823.78;;;9.08;100.00
48968;BME280;46511;53.148;8.204;2023-04-21T03:56:29;101820.59;;;8.99;100.00
48968;BME280;46511;53.148;8.204;2023-04-21T03:59:00;101827.88;;;8.92;100.00
48968;BME280;46511;53.148;8.204;2023-04-21T04:01:32;101830.25;;;9.01;100.00
48968;BME280;46511;53.148;8.204;2023-04-21T04:04:04;101827.59;;;9.01;100.00
48968;BME280;46511;53.148;8.204;2023-04-21T04:06:35;101830.56;;;9.17;100.00
48968;BME280;46511;53.148;8.204;2023-04-21T04:09:06;101824.47;;;9.15;100.00
48968;BME280;46511;53.148;8.204;2023-04-21T04:11:38;101837.41;;;8.98;100.00
48968;BME280;46511;53.148;8.204;2023-04-21T04:14:10;101826.09;;;9.19;100.00
48968;BME280;46511;53.148;8.204;2023-04-21T04:16:41;101829.88;;;9.12;100.00
48968;BME280;46511;53.148;8.204;2023-04-21T04:19:12;101832.47;;;9.13;100.00
48968;BME280;46511;53.148;8.204;2023-04-21T04:21:44;101830.78;;;9.11;100.00
48968;BME280;46511;53.148;8.204;2023-04-21T04:24:15;101834.09;;;9.18;100.00
48968;BME280;46511;53.148;8.204;2023-04-21T04:26:46;101835.25;;;9.09;100.00
48968;BME280;46511;53.148;8.204;2023-04-21T04:29:17;101826.84;;;9.23;100.00
48968;BME280;46511;53.148;8.204;2023-04-21T04:31:49;101832.75;;;9.31;100.00
48968;BME280;46511;53.148;8.204;2023-04-21T04:34:21;101832.81;;;9.29;100.00
48968;BME280;46511;53.148;8.204;2023-04-21T04:36:53;101827.72;;;9.23;100.00
48968;BME280;46511;53.148;8.204;2023-04-21T04:39:24;101823.75;;;9.10;100.00
48968;BME280;46511;53.148;8.204;2023-04-21T04:41:56;101827.59;;;9.26;100.00
48968;BME280;46511;53.148;8.204;2023-04-21T04:44:27;101832.59;;;9.35;100.00
48968;BME280;46511;53.148;8.204;2023-04-21T04:46:58;101828.69;;;9.45;100.00
48968;BME280;46511;53.148;8.204;2023-04-21T04:49:29;101836.72;;;9.19;100.00
48968;BME280;46511;53.148;8.204;2023-04-21T04:52:01;101830.66;;;9.40;100.00
48968;BME280;46511;53.148;8.204;2023-04-21T04:54:32;101837.97;;;9.07;100.00
48968;BME280;46511;53.148;8.204;2023-04-21T04:57:03;101838.38;;;9.47;100.00
48968;BME280;46511;53.148;8.204;2023-04-21T04:59:35;101833.63;;;9.31;100.00
48968;BME280;46511;53.148;8.204;2023-04-21T05:02:06;101832.81;;;9.29;100.00
48968;BME280;46511;53.148;8.204;2023-04-21T05:04:38;101832.19;;;9.46;100.00
48968;BME280;46511;53.148;8.204;2023-04-21T05:07:09;101838.19;;;9.26;100.00
48968;BME280;46511;53.148;8.204;2023-04-21T05:09:40;101840.00;;;9.51;100.00
48968;BME280;46511;53.148;8.204;2023-04-21T05:12:12;101830.94;;;9.81;100.00
48968;BME280;46511;53.148;8.204;2023-04-21T05:14:43;101828.53;;;9.98;100.00
48968;BME280;46511;53.148;8.204;2023-04-21T05:17:14;101829.81;;;9.63;100.00
48968;BME280;46511;53.148;8.204;2023-04-21T05:19:45;101825.16;;;9.70;100.00
48968;BME280;46511;53.148;8.204;2023-04-21T05:22:16;101832.13;;;9.72;100.00
48968;BME280;46511;53.148;8.204;2023-04-21T05:24:48;101829.63;;;9.93;100.00
48968;BME280;46511;53.148;8.204;2023-04-21T05:27:19;101826.81;;;9.97;100.00
48968;BME280;46511;53.148;8.204;2023-04-21T05:29:50;101828.66;;;9.95;100.00
48968;BME280;46511;53.148;8.204;2023-04-21T05:32:22;101827.16;;;10.35;100.00
48968;BME280;46511;53.148;8.204;2023-04-21T05:34:53;101826.22;;;10.36;100.00
48968;BME280;46511;53.148;8.204;2023-04-21T05:37:25;101830.69;;;10.79;100.00
48968;BME280;46511;53.148;8.204;2023-04-21T05:39:56;101830.00;;;11.98;100.00
48968;BME280;46511;53.148;8.204;2023-04-21T05:42:28;101826.97;;;12.62;100.00
48968;BME280;46511;53.148;8.204;2023-04-21T05:44:59;101823.13;;;13.56;100.00
48968;BME280;46511;53.148;8.204;2023-04-21T05:47:30;101821.81;;;13.30;100.00
48968;BME280;46511;53.148;8.204;2023-04-21T05:50:01;101818.13;;;14.47;100.00
48968;BME280;46511;53.148;8.204;2023-04-21T05:52:33;101815.03;;;13.57;100.00
48968;BME280;46511;53.148;8.204;2023-04-21T05:55:07;101815.59;;;14.44;100.00
48968;BME280;46511;53.148;8.204;2023-04-21T05:57:39;101817.97;;;14.50;100.00
48968;BME280;46511;53.148;8.204;2023-04-21T06:00:10;101819.78;;;14.01;100.00
48968;BME280;46511;53.148;8.204;2023-04-21T06:02:42;101814.69;;;14.61;100.00
48968;BME280;46511;53.148;8.204;2023-04-21T06:05:13;101806.19;;;13.39;100.00
48968;BME280;46511;53.148;8.204;2023-04-21T06:07:44;101803.94;;;14.77;100.00
48968;BME280;46511;53.148;8.204;2023-04-21T06:10:16;101811.22;;;15.35;100.00
48968;BME280;46511;53.148;8.204;2023-04-21T06:12:48;101803.06;;;15.81;94.40
48968;BME280;46511;53.148;8.204;2023-04-21T06:15:19;101791.66;;;18.04;83.18
48968;BME280;46511;53.148;8.204;2023-04-21T06:17:53;101797.59;;;17.84;80.08
48968;BME280;46511;53.148;8.204;2023-04-21T06:20:25;101789.00;;;17.91;77.37
48968;BME280;46511;53.148;8.204;2023-04-21T06:22:57;101786.84;;;18.33;70.23
48968;BME280;46511;53.148;8.204;2023-04-21T06:25:28;101787.81;;;17.05;81.14
48968;BME280;46511;53.148;8.204;2023-04-21T06:28:00;101791.53;;;17.29;76.30
48968;BME280;46511;53.148;8.204;2023-04-21T06:30:31;101787.44;;;16.84;84.86
48968;BME280;46511;53.148;8.204;2023-04-21T06:33:02;101787.56;;;16.82;86.32
48968;BME280;46511;53.148;8.204;2023-04-21T06:35:34;101784.22;;;18.92;74.40
48968;BME280;46511;53.148;8.204;2023-04-21T06:38:07;101786.41;;;17.64;80.00
48968;BME280;46511;53.148;8.204;2023-04-21T06:40:39;101788.34;;;19.20;71.30
48968;BME280;46511;53.148;8.204;2023-04-21T06:43:10;101790.06;;;18.25;68.51
48968;BME280;46511;53.148;8.204;2023-04-21T06:45:41;101784.97;;;18.94;72.67
48968;BME280;46511;53.148;8.204;2023-04-21T06:48:13;101779.31;;;18.25;68.92
48968;BME280;46511;53.148;8.204;2023-04-21T06:50:44;101772.63;;;20.50;64.23
48968;BME280;46511;53.148;8.204;2023-04-21T06:53:16;101779.53;;;19.87;58.54
48968;BME280;46511;53.148;8.204;2023-04-21T06:55:51;101777.00;;;18.93;61.55
48968;BME280;46511;53.148;8.204;2023-04-21T06:58:23;101765.91;;;21.60;57.50
48968;BME280;46511;53.148;8.204;2023-04-21T07:00:54;101768.81;;;21.99;52.19
48968;BME280;46511;53.148;8.204;2023-04-21T07:03:25;101763.31;;;20.32;57.10
48968;BME280;46511;53.148;8.204;2023-04-21T07:05:57;101757.53;;;20.79;57.87
48968;BME280;46511;53.148;8.204;2023-04-21T07:08:28;101749.28;;;20.81;55.90
48968;BME280;46511;53.148;8.204;2023-04-21T07:10:59;101757.09;;;21.98;49.42
48968;BME280;46511;53.148;8.204;2023-04-21T07:13:30;101750.41;;;22.42;52.19
48968;BME280;46511;53.148;8.204;2023-04-21T07:16:02;101743.44;;;20.33;56.92
48968;BME280;46511;53.148;8.204;2023-04-21T07:18:33;101735.88;;;20.15;56.06
48968;BME280;46511;53.148;8.204;2023-04-21T07:21:04;101745.66;;;19.27;60.73
48968;BME280;46511;53.148;8.204;2023-04-21T07:23:36;101735.44;;;20.74;54.08
48968;BME280;46511;53.148;8.204;2023-04-21T07:26:07;101739.97;;;22.09;52.29
48968;BME280;46511;53.148;8.204;2023-04-21T07:28:38;101736.34;;;21.99;48.20
48968;BME280;46511;53.148;8.204;2023-04-21T07:31:12;101732.91;;;22.56;50.00
48968;BME280;46511;53.148;8.204;2023-04-21T07:33:43;101725.25;;;22.02;50.44
48968;BME280;46511;53.148;8.204;2023-04-21T07:36:15;101721.50;;;21.32;51.69
48968;BME280;46511;53.148;8.204;2023-04-21T07:38:46;101728.06;;;21.90;51.00
48968;BME280;46511;53.148;8.204;2023-04-21T07:41:18;101726.38;;;21.99;48.60
48968;BME280;46511;53.148;8.204;2023-04-21T07:43:49;101725.59;;;22.18;48.94
48968;BME280;46511;53.148;8.204;2023-04-21T07:46:20;101731.53;;;23.47;47.01
48968;BME280;46511;53.148;8.204;2023-04-21T07:48:54;101739.91;;;21.99;49.22
48968;BME280;46511;53.148;8.204;2023-04-21T07:51:27;101732.66;;;25.52;44.34
48968;BME280;46511;53.148;8.204;2023-04-21T07:53:58;101734.13;;;25.46;42.53
48968;BME280;46511;53.148;8.204;2023-04-21T07:56:29;101742.19;;;23.96;42.62
48968;BME280;46511;53.148;8.204;2023-04-21T07:59:01;101736.59;;;21.95;46.93
48968;BME280;46511;53.148;8.204;2023-04-21T08:01:32;101737.22;;;22.97;45.83
48968;BME280;46511;53.148;8.204;2023-04-21T08:04:04;101732.66;;;23.91;44.41
48968;BME280;46511;53.148;8.204;2023-04-21T08:06:35;101723.91;;;25.14;40.60
48968;BME280;46511;53.148;8.204;2023-04-21T08:09:06;101717.78;;;25.12;42.55
48968;BME280;46511;53.148;8.204;2023-04-21T08:11:37;101726.22;;;24.20;41.25
48968;BME280;46511;53.148;8.204;2023-04-21T08:14:09;101719.41;;;23.88;42.94
48968;BME280;46511;53.148;8.204;2023-04-21T08:16:41;101714.53;;;23.92;42.71
48968;BME280;46511;53.148;8.204;2023-04-21T08:19:13;101717.09;;;22.61;46.42
48968;BME280;46511;53.148;8.204;2023-04-21T08:21:44;101708.13;;;25.00;42.63
48968;BME280;46511;53.148;8.204;2023-04-21T08:24:15;101719.06;;;23.07;44.01
48968;BME280;46511;53.148;8.204;2023-04-21T08:26:47;101710.44;;;23.41;45.70
48968;BME280;46511;53.148;8.204;2023-04-21T08:29:18;101706.66;;;24.16;43.25
48968;BME280;46511;53.148;8.204;2023-04-21T08:31:49;101699.78;;;25.19;41.01
48968;BME280;46511;53.148;8.204;2023-04-21T08:34:21;101707.38;;;27.65;37.11
48968;BME280;46511;53.148;8.204;2023-04-21T08:36:52;101702.84;;;27.49;36.60
48968;BME280;46511;53.148;8.204;2023-04-21T08:39:23;101704.41;;;27.43;35.69
48968;BME280;46511;53.148;8.204;2023-04-21T08:41:49;101700.13;;;25.76;38.30
48968;BME280;46511;53.148;8.204;2023-04-21T08:44:21;101698.47;;;26.99;36.98
48968;BME280;46511;53.148;8.204;2023-04-21T08:46:53;101703.03;;;26.25;36.13
48968;BME280;46511;53.148;8.204;2023-04-21T08:49:27;101701.72;;;26.70;36.67
48968;BME280;46511;53.148;8.204;2023-04-21T08:52:01;101705.28;;;27.83;35.28
48968;BME280;46511;53.148;8.204;2023-04-21T08:54:32;101707.31;;;25.85;36.67
48968;BME280;46511;53.148;8.204;2023-04-21T08:57:06;101700.63;;;25.72;38.12
48968;BME280;46511;53.148;8.204;2023-04-21T08:59:37;101699.94;;;23.93;41.67
48968;BME280;46511;53.148;8.204;2023-04-21T09:02:15;101699.84;;;25.87;38.67
48968;BME280;46511;53.148;8.204;2023-04-21T09:04:49;101694.34;;;25.71;38.08
48968;BME280;46511;53.148;8.204;2023-04-21T09:10:06;101696.50;;;25.33;37.91
48968;BME280;46511;53.148;8.204;2023-04-21T09:12:38;101696.03;;;27.92;36.12
48968;BME280;46511;53.148;8.204;2023-04-21T09:15:10;101695.75;;;25.49;37.76
48968;BME280;46511;53.148;8.204;2023-04-21T09:17:37;101688.69;;;24.51;39.93
48968;BME280;46511;53.148;8.204;2023-04-21T09:22:50;101688.66;;;27.70;33.99
48968;BME280;46511;53.148;8.204;2023-04-21T09:25:20;101697.50;;;27.64;34.24
48968;BME280;46511;53.148;8.204;2023-04-21T09:27:52;101684.53;;;27.10;34.01
48968;BME280;46511;53.148;8.204;2023-04-21T09:30:24;101685.56;;;25.94;35.98
48968;BME280;46511;53.148;8.204;2023-04-21T09:32:56;101681.16;;;27.95;33.52
48968;BME280;46511;53.148;8.204;2023-04-21T09:35:28;101680.78;;;27.11;33.82
48968;BME280;46511;53.148;8.204;2023-04-21T09:38:02;101687.00;;;27.36;34.48
48968;BME280;46511;53.148;8.204;2023-04-21T09:40:34;101680.19;;;27.48;34.78
48968;BME280;46511;53.148;8.204;2023-04-21T09:43:08;101679.56;;;27.77;32.71
48968;BME280;46511;53.148;8.204;2023-04-21T09:45:39;101675.69;;;28.34;32.04
48968;BME280;46511;53.148;8.204;2023-04-21T09:48:11;101681.03;;;27.49;33.19
48968;BME280;46511;53.148;8.204;2023-04-21T09:50:44;101672.00;;;27.40;34.53
48968;BME280;46511;53.148;8.204;2023-04-21T09:53:17;101658.78;;;30.09;30.52
48968;BME280;46511;53.148;8.204;2023-04-21T09:55:54;101648.75;;;30.80;28.75
48968;BME280;46511;53.148;8.204;2023-04-21T09:58:28;101648.56;;;33.64;26.71
48968;BME280;46511;53.148;8.204;2023-04-21T10:01:06;101647.16;;;30.92;28.40
48968;BME280;46511;53.148;8.204;2023-04-21T10:03:38;101645.78;;;31.10;28.44
48968;BME280;46511;53.148;8.204;2023-04-21T10:06:10;101632.53;;;30.64;29.55
48968;BME280;46511;53.148;8.204;2023-04-21T10:08:42;101637.56;;;30.60;28.49
48968;BME280;46511;53.148;8.204;2023-04-21T10:11:14;101637.84;;;30.44;28.39
48968;BME280;46511;53.148;8.204;2023-04-21T10:13:46;101633.16;;;29.36;31.22
48968;BME280;46511;53.148;8.204;2023-04-21T10:16:12;101637.66;;;28.47;31.30
48968;BME280;46511;53.148;8.204;2023-04-21T10:18:47;101620.91;;;29.98;31.09
48968;BME280;46511;53.148;8.204;2023-04-21T10:21:19;101619.13;;;30.26;29.96
48968;BME280;46511;53.148;8.204;2023-04-21T10:23:51;101615.66;;;28.17;32.06
48968;BME280;46511;53.148;8.204;2023-04-21T10:26:31;101618.09;;;29.11;30.55
48968;BME280;46511;53.148;8.204;2023-04-21T10:29:04;101621.00;;;28.57;31.63
48968;BME280;46511;53.148;8.204;2023-04-21T10:31:50;101614.53;;;30.55;28.46
48968;BME280;46511;53.148;8.204;2023-04-21T10:34:18;101607.06;;;30.42;27.41
48968;BME280;46511;53.148;8.204;2023-04-21T10:37:06;101604.25;;;31.19;27.54
48968;BME280;46511;53.148;8.204;2023-04-21T10:39:43;101604.47;;;31.18;27.23
48968;BME280;46511;53.148;8.204;2023-04-21T10:42:21;101595.34;;;32.06;26.28
48968;BME280;46511;53.148;8.204;2023-04-21T10:50:10;101589.31;;;29.00;28.83
48968;BME280;46511;53.148;8.204;2023-04-21T10:52:44;101578.09;;;28.95;29.60
48968;BME280;46511;53.148;8.204;2023-04-21T10:55:16;101574.00;;;28.76;29.51
48968;BME280;46511;53.148;8.204;2023-04-21T10:57:43;101572.03;;;31.28;27.80
48968;BME280;46511;53.148;8.204;2023-04-21T11:00:19;101573.13;;;31.40;25.74
48968;BME280;46511;53.148;8.204;2023-04-21T11:02:57;101568.88;;;30.19;27.17
48968;BME280;46511;53.148;8.204;2023-04-21T11:05:32;101579.31;;;30.09;27.13
48968;BME280;46511;53.148;8.204;2023-04-21T11:08:09;101563.66;;;31.08;27.29
48968;BME280;46511;53.148;8.204;2023-04-21T11:13:13;101559.81;;;28.43;29.76
48968;BME280;46511;53.148;8.204;2023-04-21T11:18:45;101532.13;;;32.26;26.60
48968;BME280;46511;53.148;8.204;2023-04-21T11:21:18;101552.78;;;31.76;24.92
48968;BME280;46511;53.148;8.204;2023-04-21T11:23:53;101539.09;;;31.35;25.41
48968;BME280;46511;53.148;8.204;2023-04-21T11:29:05;101538.59;;;30.55;25.67
48968;BME280;46511;53.148;8.204;2023-04-21T11:31:38;101537.28;;;29.59;27.00
48968;BME280;46511;53.148;8.204;2023-04-21T11:34:11;101519.75;;;31.63;24.56
48968;BME280;46511;53.148;8.204;2023-04-21T11:36:44;101508.03;;;31.34;25.06
48968;BME280;46511;53.148;8.204;2023-04-21T11:39:16;101506.84;;;31.50;24.94
48968;BME280;46511;53.148;8.204;2023-04-21T11:41:50;101501.56;;;32.94;23.61
48968;BME280;46511;53.148;8.204;2023-04-21T11:44:31;101511.81;;;32.07;24.71
48968;BME280;46511;53.148;8.204;2023-04-21T11:49:57;101497.13;;;31.47;24.48
48968;BME280;46511;53.148;8.204;2023-04-21T11:52:32;101488.06;;;32.79;24.94
48968;BME280;46511;53.148;8.204;2023-04-21T11:57:43;101478.34;;;31.71;25.13
48968;BME280;46511;53.148;8.204;2023-04-21T12:00:15;101489.84;;;32.34;23.99
48968;BME280;46511;53.148;8.204;2023-04-21T12:02:53;101480.19;;;30.55;24.81
48968;BME280;46511;53.148;8.204;2023-04-21T12:05:33;101484.72;;;28.16;24.44
48968;BME280;46511;53.148;8.204;2023-04-21T12:08:05;101487.00;;;25.92;26.47
48968;BME280;46511;53.148;8.204;2023-04-21T12:10:44;101493.34;;;24.92;28.19
48968;BME280;46511;53.148;8.204;2023-04-21T12:13:23;101483.13;;;23.54;30.03
48968;BME280;46511;53.148;8.204;2023-04-21T12:16:00;101464.13;;;23.36;30.19
48968;BME280;46511;53.148;8.204;2023-04-21T12:18:34;101477.28;;;22.39;30.11
48968;BME280;46511;53.148;8.204;2023-04-21T12:21:06;101453.94;;;24.28;28.74
48968;BME280;46511;53.148;8.204;2023-04-21T12:23:37;101458.88;;;24.58;27.91
48968;BME280;46511;53.148;8.204;2023-04-21T12:26:09;101458.31;;;27.63;24.96
48968;BME280;46511;53.148;8.204;2023-04-21T12:28:41;101452.19;;;29.24;23.55
48968;BME280;46511;53.148;8.204;2023-04-21T12:31:12;101444.47;;;30.13;23.47
48968;BME280;46511;53.148;8.204;2023-04-21T12:33:43;101447.59;;;28.22;24.58
48968;BME280;46511;53.148;8.204;2023-04-21T12:36:15;101450.88;;;26.55;26.08
48968;BME280;46511;53.148;8.204;2023-04-21T12:38:47;101450.56;;;28.64;24.19
48968;BME280;46511;53.148;8.204;2023-04-21T12:41:18;101433.66;;;29.05;23.21
48968;BME280;46511;53.148;8.204;2023-04-21T12:43:49;101432.19;;;29.60;22.87
48968;BME280;46511;53.148;8.204;2023-04-21T12:46:21;101420.69;;;30.90;21.26
48968;BME280;46511;53.148;8.204;2023-04-21T12:48:53;101425.97;;;30.22;21.24
48968;BME280;46511;53.148;8.204;2023-04-21T12:51:24;101433.88;;;30.38;22.00
48968;BME280;46511;53.148;8.204;2023-04-21T12:53:56;101417.25;;;31.42;20.01
48968;BME280;46511;53.148;8.204;2023-04-21T12:56:27;101412.81;;;30.74;20.00
48968;BME280;46511;53.148;8.204;2023-04-21T12:58:59;101416.09;;;30.00;21.13
48968;BME280;46511;53.148;8.204;2023-04-21T13:01:30;101408.50;;;30.02;21.67
48968;BME280;46511;53.148;8.204;2023-04-21T13:04:03;101408.00;;;29.92;21.18
48968;BME280;46511;53.148;8.204;2023-04-21T13:06:34;101412.69;;;29.48;20.68
48968;BME280;46511;53.148;8.204;2023-04-21T13:09:07;101389.06;;;30.18;20.29
48968;BME280;46511;53.148;8.204;2023-04-21T13:11:39;101403.97;;;30.09;20.28
48968;BME280;46511;53.148;8.204;2023-04-21T13:14:10;101396.44;;;28.15;21.05
48968;BME280;46511;53.148;8.204;2023-04-21T13:16:42;101400.22;;;28.14;21.37
48968;BME280;46511;53.148;8.204;2023-04-21T13:19:13;101385.91;;;28.42;21.17
48968;BME280;46511;53.148;8.204;2023-04-21T13:21:45;101387.75;;;27.59;22.09
48968;BME280;46511;53.148;8.204;2023-04-21T13:24:17;101389.16;;;27.93;21.48
48968;BME280;46511;53.148;8.204;2023-04-21T13:26:49;101378.75;;;28.56;20.85
48968;BME280;46511;53.148;8.204;2023-04-21T13:29:20;101378.06;;;29.41;20.68
48968;BME280;46511;53.148;8.204;2023-04-21T13:31:51;101373.16;;;29.36;20.71
48968;BME280;46511;53.148;8.204;2023-04-21T13:34:18;101370.22;;;28.80;21.19
48968;BME280;46511;53.148;8.204;2023-04-21T13:36:49;101376.78;;;28.35;20.74
48968;BME280;46511;53.148;8.204;2023-04-21T13:39:20;101359.41;;;27.98;21.33